Flight Track Log - Related Links

Times and Time Zones

All times are in EDT time to prevent confusion due to time zone crossing. See the SWA2975 flight status page for this flight to view local times or setup timezone preferences in your user account.

Time Position Orientation Groundspeed Altitude Reporting Facility
EDT Latitude Longitude Course Direction KTS MPH feet Rate Location/Type
Sun 10:47:24 PM 41.7730 -87.7710 250° West 152 175 1,900  Level FlightAware ADS-B
Sun 10:47:52 PM 41.7820 -87.7940 298° West 192 221 2,500 1,200 Climbing FlightAware ADS-B
Sun 10:48:04 PM 41.7940 -87.7980 346° North 220 253 2,700 960 Climbing FlightAware ADS-B
Sun 10:48:17 PM 41.8050 -87.7930 19° North 234 269 2,900 1,071 Climbing FlightAware ADS-B
Sun 10:48:32 PM 41.8170 -87.7740 50° Northeast 243 280 3,200 1,111 Climbing FlightAware ADS-B
Sun 10:48:44 PM 41.8180 -87.7570 85° East 244 281 3,400 1,050 Climbing FlightAware ADS-B
Sun 10:49:12 PM 41.8130 -87.7150 99° East 259 298 3,900 1,304 Climbing FlightAware ADS-B
Sun 10:49:30 PM 41.8100 -87.6870 98° East 280 322 4,400 2,864 Climbing FlightAware ADS-B
Sun 10:49:56 PM 41.8070 -87.6360 94° East 287 330 6,000 3,750 Climbing FlightAware ADS-B
Sun 10:50:26 PM 41.8030 -87.5830 96° East 285 328 7,900 3,458 Climbing FlightAware ADS-B
Sun 10:50:55 PM 41.7990 -87.5340 96° East 290 334 9,400 3,194 Climbing FlightAware ADS-B
Sun 10:51:28 PM 41.7950 -87.4720 95° East 297 342 11,200 3,000 Climbing FlightAware ADS-B
Sun 10:52:11 PM 41.7880 -87.3920 97° East 314 361 13,200 2,024 Climbing FlightAware ADS-B
Sun 10:52:51 PM 41.7820 -87.3060 95° East 367 422 14,000 1,769 Climbing FlightAware ADS-B
Sun 10:53:29 PM 41.7740 -87.2200 97° East 384 442 15,500 2,400 Climbing FlightAware ADS-B
Sun 10:54:11 PM 41.7660 -87.1200 96° East 397 457 17,200 2,571 Climbing FlightAware ADS-B
Sun 10:55:07 PM 41.7630 -86.9830 92° East 401 461 19,700 2,516 Climbing FlightAware ADS-B
Sun 10:55:44 PM 41.7640 -86.8880 89° East 408 470 21,100 1,899 Climbing FlightAware ADS-B
Sun 10:56:26 PM 41.7650 -86.7860 89° East 423 487 22,200 2,494 Climbing FlightAware ADS-B
Sun 10:57:13 PM 41.7660 -86.6610 89° East 402 463 24,800 2,427 Climbing FlightAware ADS-B
Sun 10:57:55 PM 41.7880 -86.5630 73° East 405 466 25,800 1,378 Climbing FlightAware ADS-B
Sun 10:58:27 PM 41.8080 -86.4870 71° East 415 478 26,500 1,974 Climbing FlightAware ADS-B
Sun 10:59:11 PM 41.8380 -86.3770 70° East 409 471 28,300 2,357 Climbing FlightAware ADS-B
Sun 10:59:51 PM 41.8630 -86.2850 70° East 402 463 29,800 2,080 Climbing FlightAware ADS-B
Sun 11:00:26 PM 41.8830 -86.2070 71° East 398 458 30,900 1,714 Climbing FlightAware ADS-B
Sun 11:01:08 PM 41.9080 -86.1070 71° East 400 460 32,000 1,482 Climbing FlightAware ADS-B
Sun 11:01:51 PM 41.9310 -86.0000 74° East 406 467 33,000 1,299 Climbing FlightAware ADS-B
Sun 11:02:45 PM 41.9570 -85.8710 75° East 407 468 34,100 1,212 Climbing FlightAware ADS-B
Sun 11:03:30 PM 41.9780 -85.7630 75° East 406 467 35,000 635 Climbing FlightAware ADS-B
Sun 11:04:10 PM 41.9980 -85.6650 75° East 400 460 35,000  Level FlightAware ADS-B
Sun 11:04:55 PM 42.0220 -85.5540 74° East 406 467 35,000  Level FlightAware ADS-B
Sun 11:05:34 PM 42.0410 -85.4630 74° East 421 484 35,000 148 Level FlightAware ADS-B
Sun 11:06:16 PM 42.0640 -85.3520 74° East 435 501 35,200 375 Climbing FlightAware ADS-B
Sun 11:06:54 PM 42.0850 -85.2480 75° East 445 512 35,500 357 Climbing FlightAware ADS-B
Sun 11:07:40 PM 42.1080 -85.1380 74° East 449 517 35,700 146 Climbing FlightAware ADS-B
Sun 11:08:16 PM 42.1250 -85.0560 74° East 449 517 35,700  Level FlightAware ADS-B
Sun 11:09:04 PM 42.1490 -84.9460 74° East 449 517 35,700  Level FlightAware ADS-B
Sun 11:09:41 PM 42.1670 -84.8610 74° East 449 517 35,700  Level FlightAware ADS-B
Sun 11:10:32 PM 42.1920 -84.7450 74° East 449 517 35,700 476 Level FlightAware ADS-B
Sun 11:12:25 PM 42.2680 -84.3700 75° East 435 501 37,000 497 Climbing FlightAware ADS-B
Sun 11:13:09 PM 42.2940 -84.2590 72° East 433 498 37,000  Level FlightAware ADS-B
Sun 11:13:53 PM 42.3230 -84.1440 71° East 432 497 37,000  Level FlightAware ADS-B
Sun 11:14:25 PM 42.3430 -84.0650 71° East 433 498 37,000  Level FlightAware ADS-B
Sun 11:15:09 PM 42.3720 -83.9510 71° East 434 499 37,000  Level FlightAware ADS-B
Sun 11:15:51 PM 42.4030 -83.8440 69° East 434 499 37,000  Level FlightAware ADS-B
Sun 11:16:35 PM 42.4370 -83.7340 67° East 438 504 37,000  Level FlightAware ADS-B
Sun 11:17:13 PM 42.4660 -83.6370 68° East 439 505 37,000  Level FlightAware ADS-B
Sun 11:17:59 PM 42.5020 -83.5230 67° East 440 506 37,000  Level FlightAware ADS-B
Sun 11:18:39 PM 42.5350 -83.4190 67° East 441 507 37,000  Level FlightAware ADS-B
Sun 11:19:18 PM 42.5660 -83.3220 67° East 440 506 37,000  Level FlightAware ADS-B
Sun 11:19:56 PM 42.5970 -83.2270 66° East 440 506 37,000  Level FlightAware ADS-B
Sun 11:20:40 PM 42.6340 -83.1170 65° Northeast 439 505 37,000  Level FlightAware ADS-B
Sun 11:21:16 PM 42.6630 -83.0270 66° East 439 505 37,000  Level FlightAware ADS-B
Sun 11:21:56 PM 42.6980 -82.9260 65° Northeast 439 505 37,000  Level FlightAware ADS-B
Sun 11:22:36 PM 42.7330 -82.8250 65° Northeast 438 504 37,000  Level FlightAware ADS-B
Sun 11:23:14 PM 42.7630 -82.7310 66° East 437 503 37,000  Level FlightAware ADS-B
Sun 11:24:02 PM 42.7990 -82.6120 68° East 434 499 37,000  Level FlightAware ADS-B
Sun 11:24:42 PM 42.8240 -82.5040 72° East 438 504 37,000  Level FlightAware ADS-B
Sun 11:25:38 PM 42.8190 -82.3620 93° East 440 506 37,000  Level FlightAware ADS-B
Sun 11:26:15 PM 42.8140 -82.2660 94° East 443 510 37,000  Level FlightAware ADS-B
Sun 11:26:48 PM 42.8080 -82.1740 95° East 447 514 37,000  Level FlightAware ADS-B
Sun 11:27:40 PM 42.8000 -82.0230 94° East 448 516 37,000  Level FlightAware ADS-B
Sun 11:28:16 PM 42.7960 -81.9280 93° East 449 517 37,000  Level FlightAware ADS-B
Sun 11:28:51 PM 42.7920 -81.8220 93° East 451 519 37,000  Level FlightAware ADS-B
Sun 11:29:32 PM 42.7860 -81.7180 94° East 453 521 37,000  Level FlightAware ADS-B
Sun 11:30:17 PM 42.7730 -81.5840 97° East 454 522 37,000  Level FlightAware ADS-B
Sun 11:30:59 PM 42.7620 -81.4670 97° East 455 524 37,000  Level FlightAware ADS-B
Sun 11:31:41 PM 42.7510 -81.3460 97° East 452 520 37,000  Level FlightAware ADS-B
Sun 11:32:24 PM 42.7400 -81.2350 98° East 450 518 37,000  Level FlightAware ADS-B
Sun 11:33:07 PM 42.7270 -81.0960 97° East 450 518 37,000  Level FlightAware ADS-B
Sun 11:33:47 PM 42.7160 -80.9850 98° East 449 517 37,000  Level FlightAware ADS-B
Sun 11:34:27 PM 42.7080 -80.8720 95° East 450 518 37,000  Level FlightAware ADS-B
Sun 11:35:14 PM 42.7110 -80.7320 88° East 447 514 37,000  Level FlightAware ADS-B
Sun 11:35:54 PM 42.7160 -80.6190 87° East 446 513 37,000  Level FlightAware ADS-B
Sun 11:36:38 PM 42.7200 -80.4950 87° East 444 511 37,000  Level FlightAware ADS-B
Sun 11:37:15 PM 42.7240 -80.3950 87° East 444 511 37,000  Level FlightAware ADS-B
Sun 11:38:04 PM 42.7280 -80.2580 88° East 445 512 37,000  Level FlightAware ADS-B
Sun 11:38:44 PM 42.7320 -80.1470 87° East 446 513 37,000  Level FlightAware ADS-B
Sun 11:39:22 PM 42.7350 -80.0370 88° East 446 513 37,000  Level FlightAware ADS-B
Sun 11:40:02 PM 42.7380 -79.9290 88° East 446 513 37,000  Level FlightAware ADS-B
Sun 11:40:47 PM 42.7410 -79.8100 88° East 447 514 37,000  Level FlightAware ADS-B
Sun 11:41:32 PM 42.7440 -79.6860 88° East 448 516 37,000  Level FlightAware ADS-B
Sun 11:42:12 PM 42.7470 -79.5750 88° East 448 516 37,000  Level FlightAware ADS-B
Sun 11:42:52 PM 42.7500 -79.4630 88° East 450 518 37,000  Level FlightAware ADS-B
Sun 11:43:37 PM 42.7530 -79.3310 88° East 450 518 37,000  Level FlightAware ADS-B
Sun 11:44:17 PM 42.7560 -79.2180 88° East 451 519 37,000  Level FlightAware ADS-B
Sun 11:44:52 PM 42.7580 -79.1200 88° East 450 518 37,000  Level FlightAware ADS-B
Sun 11:45:33 PM 42.7600 -79.0060 89° East 451 519 37,000  Level FlightAware ADS-B
Sun 11:46:17 PM 42.7630 -78.8790 88° East 452 520 37,000  Level FlightAware ADS-B
Sun 11:46:57 PM 42.7650 -78.7680 89° East 453 521 37,000  Level FlightAware ADS-B
Sun 11:47:42 PM 42.7670 -78.6370 89° East 456 525 37,000  Level FlightAware ADS-B
Sun 11:48:22 PM 42.7690 -78.5230 89° East 456 525 37,000  Level FlightAware ADS-B
Sun 11:49:07 PM 42.7710 -78.3950 89° East 457 526 37,000  Level FlightAware ADS-B
Sun 11:49:37 PM 42.7720 -78.3120 89° East 457 526 37,000  Level FlightAware ADS-B
Sun 11:50:22 PM 42.7740 -78.1810 89° East 458 527 37,000  Level FlightAware ADS-B
Sun 11:51:03 PM 42.7750 -78.0630 89° East 458 527 37,000  Level FlightAware ADS-B
Sun 11:51:42 PM 42.7770 -77.9490 89° East 456 525 37,000 -304 Level FlightAware ADS-B
Sun 11:52:22 PM 42.7780 -77.8370 89° East 457 526 36,600 -825 Descending FlightAware ADS-B
Sun 11:53:02 PM 42.7790 -77.7200 89° East 465 535 35,900 -988 Descending FlightAware ADS-B
Sun 11:53:47 PM 42.7800 -77.5870 89° East 468 539 35,200 -918 Descending FlightAware ADS-B
Sun 11:54:27 PM 42.7810 -77.4750 89° East 463 533 34,600 -1,071 Descending FlightAware ADS-B
Sun 11:55:11 PM 42.7710 -77.3360 96° East 450 518 33,700 -1,116 Descending FlightAware ADS-B
Sun 11:55:53 PM 42.7580 -77.2210 99° East 445 512 33,000 -1,000 Descending FlightAware ADS-B
Sun 11:56:29 PM 42.7470 -77.1200 98° East 445 512 32,400 -1,026 Descending FlightAware ADS-B
Sun 11:57:09 PM 42.7360 -77.0100 98° East 440 506 31,700 -1,000 Descending FlightAware ADS-B
Sun 11:57:53 PM 42.7230 -76.8910 98° East 433 498 31,000 -987 Descending FlightAware ADS-B
Sun 11:58:28 PM 42.7140 -76.7990 98° East 429 494 30,400 -1,054 Descending FlightAware ADS-B
Sun 11:59:07 PM 42.7050 -76.6920 96° East 424 488 29,700 -1,037 Descending FlightAware ADS-B
Sun 11:59:49 PM 42.6950 -76.5830 97° East 427 491 29,000 -488 Descending FlightAware ADS-B
Mon 12:00:33 AM 42.6820 -76.4650 98° East 426 490 29,000  Level FlightAware ADS-B
Mon 12:01:13 AM 42.6700 -76.3600 99° East 429 494 29,000  Level FlightAware ADS-B
Mon 12:01:58 AM 42.6550 -76.2420 100° East 429 494 29,000  Level FlightAware ADS-B
Mon 12:02:37 AM 42.6420 -76.1380 100° East 429 494 29,000  Level FlightAware ADS-B
Mon 12:03:21 AM 42.6280 -76.0200 99° East 423 487 29,000 -837 Level FlightAware ADS-B
Mon 12:04:03 AM 42.6140 -75.9140 100° East 410 472 27,800 -1,814 Descending FlightAware ADS-B
Mon 12:04:47 AM 42.6000 -75.8020 100° East 405 466 26,400 -1,880 Descending FlightAware ADS-B
Mon 12:05:26 AM 42.5880 -75.7060 100° East 400 460 25,200 -1,902 Descending FlightAware ADS-B
Mon 12:06:09 AM 42.5730 -75.6000 101° East 396 456 23,800 -1,880 Descending FlightAware ADS-B
Mon 12:06:49 AM 42.5590 -75.5030 101° East 392 451 22,600 -1,846 Descending FlightAware ADS-B
Mon 12:07:27 AM 42.5440 -75.4110 102° East 387 445 21,400 -1,841 Descending FlightAware ADS-B
Mon 12:08:17 AM 42.5250 -75.2960 103° East 382 440 19,900 -1,055 Descending FlightAware ADS-B
Mon 12:08:58 AM 42.5120 -75.2120 102° East 382 440 19,800 -78 Descending FlightAware ADS-B
Mon 12:09:34 AM 42.5010 -75.1410 102° East 382 440 19,800  Level FlightAware ADS-B
Mon 12:10:34 AM 42.4820 -75.0210 102° East 382 440 19,800  Level FlightAware ADS-B
Mon 12:11:26 AM 42.4660 -74.9180 102° East 382 440 19,800  Level FlightAware ADS-B
Mon 12:12:04 AM 42.4540 -74.8420 102° East 382 440 19,800 -6,158 Level FlightAware ADS-B
Mon 12:12:42 AM 42.5822 -74.6989 102° East 381 438 12,000 -5,152 Descending Boston Center
Mon 12:13:43 AM 42.6056 -74.5669 76° East 355 409 11,300 -1,041 Descending Boston Center
Mon 12:14:43 AM 42.6017 -74.4456 92° East 316 364 9,900 -1,636 Descending Boston Center
Mon 12:15:44 AM 42.5931 -74.3269 96° East 310 357 8,000 -1,721 Descending Boston Center
Mon 12:16:45 AM 42.5886 -74.2139 93° East 308 354 6,400 -1,314 Descending Boston Center
Mon 12:17:29 AM 42.5836 -74.1461 96° East 308 354 5,700 -1,269 Descending Boston Center
Mon 12:18:29 AM 42.5747 -74.0303 96° East 285 328 4,200 -1,100 Descending Boston Center
Mon 12:19:29 AM 42.5678 -73.9286 95° East 260 299 3,500 -600 Descending Boston Center
Mon 12:20:29 AM 42.5603 -73.8581 98° East 226 260 3,000 -600 Descending Boston Center
Mon 12:21:29 AM 42.5881 -73.7994 57° Northeast 175 201 2,300 -400 Descending Boston Center
Mon 12:22:29 AM 42.6200 -73.7519 48° Northeast 166 191 2,200 -514 Descending Boston Center
Mon 12:23:49 AM 42.6922 -73.8072 331° Northwest 150 173 1,100 -825 Descending Boston Center
Mon 12:27:00 AM 42.7333 -73.8000 North  Level FlightAware Approximate
Mon 12:34:00 AM 42.7491 -73.8020 North  Level Estimated
Mon 12:35:00 AM 42.7491 -73.8020 North  Level Estimated

Login

Don't have an account? Register now (free) for customized features, flight alerts, and more!